createdAt,value
2017-05-07T00:00:19.650Z,99.90
2017-05-07T00:02:48.010Z,99.90
2017-05-07T00:05:16.326Z,99.90
2017-05-07T00:07:45.385Z,99.90
2017-05-07T00:10:13.730Z,99.90
2017-05-07T00:12:42.028Z,99.90
2017-05-07T00:15:10.323Z,99.90
2017-05-07T00:17:38.677Z,99.90
2017-05-07T00:20:06.979Z,99.90
2017-05-07T00:22:35.298Z,99.90
2017-05-07T00:25:04.392Z,99.90
2017-05-07T00:27:33.447Z,99.90
2017-05-07T00:30:01.762Z,99.90
2017-05-07T00:32:30.876Z,99.90
2017-05-07T00:34:59.196Z,99.90
2017-05-07T00:37:27.506Z,99.90
2017-05-07T00:39:55.857Z,99.90
2017-05-07T00:42:24.160Z,99.90
2017-05-07T00:44:52.481Z,99.90
2017-05-07T00:47:20.840Z,99.90
2017-05-07T00:49:49.143Z,99.90
2017-05-07T00:52:17.439Z,99.90
2017-05-07T00:54:45.763Z,99.90
2017-05-07T00:57:14.819Z,99.90
2017-05-07T00:59:43.135Z,99.90
2017-05-07T01:02:12.227Z,99.90
2017-05-07T01:04:41.283Z,99.90
2017-05-07T01:07:09.603Z,99.90
2017-05-07T01:09:38.700Z,99.90
2017-05-07T01:12:07.759Z,99.90
2017-05-07T01:14:36.074Z,99.90
2017-05-07T01:17:05.159Z,99.90
2017-05-07T01:19:33.482Z,99.90
2017-05-07T01:22:01.783Z,99.90
2017-05-07T01:24:30.139Z,99.90
2017-05-07T01:26:58.449Z,99.90
2017-05-07T01:29:26.776Z,99.90
2017-05-07T01:31:55.108Z,99.90
2017-05-07T01:34:23.428Z,99.90
2017-05-07T01:36:51.750Z,99.90
2017-05-07T01:39:20.106Z,99.90
2017-05-07T01:41:48.422Z,99.90
2017-05-07T01:44:16.739Z,99.90
2017-05-07T01:46:45.089Z,99.90
2017-05-07T01:49:13.402Z,99.90
2017-05-07T01:51:41.717Z,99.90
2017-05-07T01:54:10.067Z,99.90
2017-05-07T01:56:39.127Z,99.90
2017-05-07T01:59:07.451Z,99.90
2017-05-07T02:01:36.546Z,99.90
2017-05-07T02:04:05.607Z,99.90
2017-05-07T02:06:33.931Z,99.90
2017-05-07T02:09:02.279Z,99.90
2017-05-07T02:11:30.598Z,99.90
2017-05-07T02:13:58.901Z,99.90
2017-05-07T02:16:27.247Z,99.90
2017-05-07T02:18:55.558Z,99.90
2017-05-07T02:21:23.878Z,99.90
2017-05-07T02:23:52.958Z,99.90
2017-05-07T02:26:21.270Z,99.90
2017-05-07T02:28:49.581Z,99.90
2017-05-07T02:31:17.912Z,99.90
2017-05-07T02:33:46.978Z,99.90
2017-05-07T02:36:15.290Z,99.90
2017-05-07T02:38:44.386Z,99.90
2017-05-07T02:41:13.418Z,99.90
2017-05-07T02:43:41.735Z,99.90
2017-05-07T02:46:10.089Z,99.90
2017-05-07T02:48:38.407Z,99.90
2017-05-07T02:51:07.467Z,99.90
2017-05-07T02:53:35.803Z,99.90
2017-05-07T02:56:04.095Z,99.90
2017-05-07T02:58:32.406Z,99.90
2017-05-07T03:01:00.754Z,99.90
2017-05-07T03:03:29.071Z,99.90
2017-05-07T03:05:57.387Z,99.90
2017-05-07T03:08:25.709Z,99.90
2017-05-07T03:10:54.018Z,99.90
2017-05-07T03:13:22.334Z,99.90
2017-05-07T03:15:50.686Z,99.90
2017-05-07T03:18:19.743Z,99.90
2017-05-07T03:20:48.041Z,99.90
2017-05-07T03:23:16.359Z,99.90
2017-05-07T03:25:44.666Z,99.90
2017-05-07T03:28:12.978Z,99.90
2017-05-07T03:30:41.331Z,99.90
2017-05-07T03:33:09.640Z,99.90
2017-05-07T03:35:38.677Z,99.90
2017-05-07T03:38:07.022Z,99.90
2017-05-07T03:40:36.059Z,99.90
2017-05-07T03:43:04.351Z,99.90
2017-05-07T03:45:32.678Z,99.90
2017-05-07T03:48:01.715Z,99.90
2017-05-07T03:50:30.008Z,99.90
2017-05-07T03:52:58.343Z,99.90
2017-05-07T03:55:26.639Z,99.90
2017-05-07T03:57:54.930Z,99.90
2017-05-07T04:00:23.251Z,99.90
2017-05-07T04:02:52.284Z,99.90
2017-05-07T04:05:20.576Z,99.90
2017-05-07T04:07:48.896Z,99.90
2017-05-07T04:10:17.186Z,99.90
2017-05-07T04:12:46.223Z,99.90
2017-05-07T04:15:14.551Z,99.90
2017-05-07T04:17:43.584Z,99.90
2017-05-07T04:20:11.883Z,99.90
2017-05-07T04:22:40.211Z,99.90
2017-05-07T04:25:09.247Z,99.90
2017-05-07T04:27:37.548Z,99.90
2017-05-07T04:30:05.872Z,99.90
2017-05-07T04:32:34.158Z,99.90
2017-05-07T04:35:02.451Z,99.90
2017-05-07T04:37:30.787Z,99.90
2017-05-07T04:39:59.829Z,99.90
2017-05-07T04:42:28.123Z,99.90
2017-05-07T04:44:56.456Z,99.90
2017-05-07T04:47:24.761Z,99.90
2017-05-07T04:49:53.064Z,99.90
2017-05-07T04:52:21.391Z,99.90
2017-05-07T04:54:49.691Z,99.90
2017-05-07T04:57:17.991Z,99.90
2017-05-07T04:59:46.320Z,99.90
2017-05-07T05:02:14.628Z,99.90
2017-05-07T05:04:42.927Z,99.90
2017-05-07T05:07:11.263Z,99.90
2017-05-07T05:09:39.556Z,99.90
2017-05-07T05:12:07.848Z,99.90
2017-05-07T05:14:36.187Z,99.90
2017-05-07T05:17:04.493Z,99.90
2017-05-07T05:19:47.704Z,99.90
2017-05-07T05:22:33.688Z,99.90
2017-05-07T05:25:19.667Z,99.90
2017-05-07T05:27:48.702Z,99.90
2017-05-07T05:30:23.949Z,99.90
2017-05-07T05:32:52.243Z,99.90
2017-05-07T05:35:20.536Z,99.90
2017-05-07T05:37:48.864Z,99.90
2017-05-07T05:40:17.164Z,99.90
2017-05-07T05:42:45.457Z,99.90
2017-05-07T05:45:13.793Z,99.90
2017-05-07T05:47:42.091Z,99.90
2017-05-07T05:50:10.385Z,99.90
2017-05-07T05:52:38.719Z,99.90
2017-05-07T05:55:07.015Z,99.90
2017-05-07T05:57:35.311Z,99.90
2017-05-07T06:00:03.631Z,99.90
2017-05-07T06:02:31.927Z,99.90
2017-05-07T06:05:00.220Z,99.90
2017-05-07T06:07:28.559Z,99.90
2017-05-07T06:09:56.855Z,99.90
2017-05-07T06:12:25.147Z,99.90
2017-05-07T06:14:53.747Z,99.90
2017-05-07T06:17:22.046Z,99.90
2017-05-07T06:19:51.088Z,99.90
2017-05-07T06:22:19.419Z,99.90
2017-05-07T06:24:47.722Z,99.90
2017-05-07T06:27:16.056Z,99.90
2017-05-07T06:29:44.387Z,99.90
2017-05-07T06:32:12.684Z,99.90
2017-05-07T06:34:40.983Z,99.90
2017-05-07T06:37:10.059Z,99.90
2017-05-07T06:39:38.358Z,99.90
2017-05-07T06:42:07.392Z,99.90
2017-05-07T06:44:35.720Z,99.90
2017-05-07T06:47:04.759Z,99.90
2017-05-07T06:49:33.059Z,99.90
2017-05-07T06:52:01.393Z,99.90
2017-05-07T06:54:29.695Z,99.90
2017-05-07T06:56:57.990Z,99.90
2017-05-07T06:59:26.316Z,99.90
2017-05-07T07:01:55.351Z,99.30
2017-05-07T07:04:24.384Z,98.90
2017-05-07T07:06:52.727Z,99.70
2017-05-07T07:09:21.759Z,99.50
2017-05-07T07:11:50.055Z,99.50
2017-05-07T07:14:18.388Z,98.60
2017-05-07T07:16:46.684Z,97.80
2017-05-07T07:19:14.979Z,97.70
2017-05-07T07:21:43.315Z,97.00
2017-05-07T07:24:12.359Z,97.40
2017-05-07T07:26:40.655Z,97.40
2017-05-07T07:29:09.013Z,97.40
2017-05-07T07:31:37.310Z,96.80
2017-05-07T07:34:05.623Z,95.80
2017-05-07T07:36:34.691Z,95.70
2017-05-07T07:39:03.761Z,95.90
2017-05-07T07:41:32.048Z,95.90
2017-05-07T07:44:01.117Z,96.40
2017-05-07T07:46:29.416Z,96.30
2017-05-07T07:48:57.715Z,96.20
2017-05-07T07:51:26.816Z,96.00
2017-05-07T07:53:55.839Z,96.80
2017-05-07T07:56:24.137Z,96.30
2017-05-07T07:58:52.467Z,95.70
2017-05-07T08:01:20.759Z,96.40
2017-05-07T08:03:49.054Z,96.30
2017-05-07T08:06:17.373Z,97.10
2017-05-07T08:08:45.675Z,97.40
2017-05-07T08:11:14.713Z,97.50
2017-05-07T08:13:43.052Z,96.00
2017-05-07T08:16:11.347Z,95.60
2017-05-07T08:18:39.638Z,93.60
2017-05-07T08:21:07.972Z,92.00
2017-05-07T08:23:37.008Z,92.00
2017-05-07T08:26:05.300Z,87.40
2017-05-07T08:28:33.634Z,88.70
2017-05-07T08:31:01.931Z,89.30
2017-05-07T08:33:30.219Z,90.00
2017-05-07T08:35:58.543Z,90.10
2017-05-07T08:38:27.571Z,91.10
2017-05-07T08:40:55.863Z,87.00
2017-05-07T08:43:24.200Z,88.90
2017-05-07T08:45:52.501Z,87.70
2017-05-07T08:48:20.795Z,88.90
2017-05-07T08:50:49.127Z,85.50
2017-05-07T08:53:18.160Z,84.90
2017-05-07T08:55:46.455Z,82.20
2017-05-07T08:58:14.791Z,79.80
2017-05-07T09:00:43.085Z,82.70
2017-05-07T09:03:12.819Z,80.80
2017-05-07T09:05:41.147Z,78.90
2017-05-07T09:08:09.444Z,81.00
2017-05-07T09:10:37.744Z,77.20
2017-05-07T09:13:20.943Z,76.10
2017-05-07T09:16:04.919Z,71.50
2017-05-07T09:18:50.891Z,73.10
2017-05-07T09:21:19.928Z,73.70
2017-05-07T09:23:48.248Z,69.50
2017-05-07T09:26:16.572Z,68.30
2017-05-07T09:28:44.867Z,67.30
2017-05-07T09:31:13.161Z,66.40
2017-05-07T09:33:41.492Z,65.00
2017-05-07T09:36:09.787Z,62.70
2017-05-07T09:38:38.076Z,59.30
2017-05-07T09:41:06.406Z,57.00
2017-05-07T09:43:35.439Z,61.40
2017-05-07T09:46:03.732Z,56.40
2017-05-07T09:48:32.056Z,58.40
2017-05-07T09:51:01.091Z,60.30
2017-05-07T09:53:29.383Z,59.60
2017-05-07T09:55:57.705Z,64.00
2017-05-07T09:58:26.735Z,68.70
2017-05-07T10:00:55.031Z,68.50
2017-05-07T10:03:23.351Z,67.50
2017-05-07T10:05:51.649Z,68.90
2017-05-07T10:08:20.687Z,71.20
2017-05-07T10:10:49.024Z,71.20
2017-05-07T10:13:18.064Z,70.80
2017-05-07T10:15:46.360Z,70.60
2017-05-07T10:18:14.691Z,72.80
2017-05-07T10:20:42.991Z,67.10
2017-05-07T10:23:11.288Z,61.20
2017-05-07T10:25:39.619Z,59.50
2017-05-07T10:28:07.910Z,59.20
2017-05-07T10:30:36.203Z,59.70
2017-05-07T10:33:04.533Z,65.60
2017-05-07T10:35:32.828Z,60.30
2017-05-07T10:38:01.121Z,60.90
2017-05-07T10:40:29.448Z,64.80
2017-05-07T10:42:57.750Z,65.10
2017-05-07T10:45:26.047Z,63.70
2017-05-07T10:47:54.387Z,61.70
2017-05-07T10:50:22.685Z,59.20
2017-05-07T10:52:50.982Z,59.40
2017-05-07T10:55:19.299Z,62.40
2017-05-07T10:57:47.593Z,58.90
2017-05-07T11:00:16.637Z,60.90
2017-05-07T11:02:44.960Z,64.50
2017-05-07T11:05:14.008Z,64.90
2017-05-07T11:07:42.304Z,63.70
2017-05-07T11:10:10.622Z,65.40
2017-05-07T11:12:39.660Z,63.80
2017-05-07T11:15:07.952Z,65.30
2017-05-07T11:17:36.277Z,68.70
2017-05-07T11:20:05.315Z,70.20
2017-05-07T11:22:33.612Z,68.40
2017-05-07T11:25:01.933Z,68.40
2017-05-07T11:27:30.231Z,70.00
2017-05-07T11:29:58.564Z,69.80
2017-05-07T11:32:26.862Z,69.30
2017-05-07T11:34:55.903Z,72.90
2017-05-07T11:37:24.240Z,75.60
2017-05-07T11:39:52.539Z,73.00
2017-05-07T11:42:20.840Z,75.30
2017-05-07T11:44:49.180Z,72.10
2017-05-07T11:47:17.476Z,75.40
2017-05-07T11:49:45.772Z,74.20
2017-05-07T11:52:14.100Z,73.20
2017-05-07T11:54:43.136Z,75.30
2017-05-07T11:57:11.434Z,76.20
2017-05-07T11:59:39.751Z,78.70
2017-05-07T12:02:08.791Z,81.40
2017-05-07T12:04:37.083Z,78.60
2017-05-07T12:07:05.415Z,79.90
2017-05-07T12:09:33.707Z,77.50
2017-05-07T12:12:02.000Z,75.10
2017-05-07T12:14:30.328Z,72.80
2017-05-07T12:16:59.359Z,70.70
2017-05-07T12:19:27.652Z,69.20
2017-05-07T12:21:55.982Z,61.50
2017-05-07T12:24:25.015Z,60.80
2017-05-07T12:26:53.309Z,63.00
2017-05-07T12:29:21.640Z,59.50
2017-05-07T12:31:49.940Z,59.60
2017-05-07T12:34:18.236Z,57.70
2017-05-07T12:36:46.556Z,54.60
2017-05-07T12:39:15.591Z,56.40
2017-05-07T12:41:43.883Z,60.10
2017-05-07T12:44:12.212Z,61.50
2017-05-07T12:46:41.261Z,54.70
2017-05-07T12:49:09.555Z,56.80
2017-05-07T12:51:37.887Z,54.60
2017-05-07T12:54:06.184Z,53.50
2017-05-07T12:56:34.481Z,56.20
2017-05-07T12:59:02.812Z,57.90
2017-05-07T13:01:31.107Z,61.10
2017-05-07T13:03:59.405Z,59.40
2017-05-07T13:06:27.728Z,56.80
2017-05-07T13:08:56.768Z,54.90
2017-05-07T13:11:25.069Z,57.60
2017-05-07T13:13:53.400Z,62.10
2017-05-07T13:16:21.691Z,59.60
2017-05-07T13:18:49.983Z,57.20
2017-05-07T13:21:19.016Z,58.50
2017-05-07T13:23:47.319Z,61.40
2017-05-07T13:26:15.624Z,65.20
2017-05-07T13:28:43.984Z,62.40
2017-05-07T13:31:12.697Z,60.00
2017-05-07T13:33:41.000Z,54.80
2017-05-07T13:36:09.326Z,54.30
2017-05-07T13:38:37.631Z,55.60
2017-05-07T13:41:05.923Z,57.60
2017-05-07T13:43:34.263Z,56.70
2017-05-07T13:46:02.559Z,55.20
2017-05-07T13:48:30.863Z,51.90
2017-05-07T13:50:59.256Z,51.20
2017-05-07T13:53:27.554Z,52.70
2017-05-07T13:55:56.592Z,49.60
2017-05-07T13:58:24.920Z,49.90
2017-05-07T14:00:53.952Z,50.40
2017-05-07T14:03:22.248Z,54.20
2017-05-07T14:05:50.605Z,55.30
2017-05-07T14:08:18.907Z,54.20
2017-05-07T14:10:47.202Z,53.60
2017-05-07T14:13:15.532Z,55.60
2017-05-07T14:15:43.827Z,55.70
2017-05-07T14:18:12.121Z,57.50
2017-05-07T14:20:40.454Z,57.90
2017-05-07T14:23:08.749Z,57.90
2017-05-07T14:25:37.043Z,57.10
2017-05-07T14:28:05.372Z,58.20
2017-05-07T14:30:34.416Z,58.50
2017-05-07T14:33:02.715Z,58.30
2017-05-07T14:35:31.036Z,58.50
2017-05-07T14:37:59.328Z,59.50
2017-05-07T14:40:27.623Z,60.30
2017-05-07T14:42:55.956Z,59.40
2017-05-07T14:45:25.045Z,61.40
2017-05-07T14:47:53.346Z,60.80
2017-05-07T14:50:21.668Z,60.10
2017-05-07T14:52:49.981Z,61.70
2017-05-07T14:55:18.281Z,61.80
2017-05-07T14:57:46.616Z,60.40
2017-05-07T15:00:15.651Z,60.10
2017-05-07T15:02:43.946Z,59.70
2017-05-07T15:05:12.279Z,56.90
2017-05-07T15:07:40.571Z,58.50
2017-05-07T15:10:08.868Z,59.10
2017-05-07T15:12:37.203Z,59.80
2017-05-07T15:15:06.246Z,58.80
2017-05-07T15:17:34.547Z,61.30
2017-05-07T15:20:02.883Z,62.40
2017-05-07T15:22:31.184Z,63.90
2017-05-07T15:24:59.480Z,66.70
2017-05-07T15:27:27.823Z,66.10
2017-05-07T15:29:56.123Z,68.00
2017-05-07T15:32:24.422Z,68.50
2017-05-07T15:34:52.755Z,69.20
2017-05-07T15:37:21.061Z,70.20
2017-05-07T15:39:49.368Z,69.10
2017-05-07T15:42:18.443Z,70.90
2017-05-07T15:44:46.743Z,68.00
2017-05-07T15:47:15.779Z,69.20
2017-05-07T15:49:44.116Z,71.90
2017-05-07T15:52:13.163Z,69.70
2017-05-07T15:54:41.463Z,72.30
2017-05-07T15:57:09.787Z,73.60
2017-05-07T15:59:38.088Z,73.80
2017-05-07T16:02:06.388Z,75.90
2017-05-07T16:04:34.724Z,75.70
2017-05-07T16:07:03.021Z,74.50
2017-05-07T16:09:31.320Z,75.10
2017-05-07T16:11:59.649Z,76.20
2017-05-07T16:14:27.952Z,74.90
2017-05-07T16:26:28.579Z,75.30
2017-05-07T16:29:11.783Z,75.80
2017-05-07T16:31:40.078Z,77.80
2017-05-07T16:34:08.376Z,78.50
2017-05-07T16:36:36.712Z,79.00
2017-05-07T16:39:05.011Z,80.50
2017-05-07T16:41:33.313Z,80.00
2017-05-07T16:44:01.641Z,81.30
2017-05-07T16:46:29.940Z,81.60
2017-05-07T16:48:58.240Z,81.80
2017-05-07T16:51:26.578Z,82.80
2017-05-07T16:53:54.111Z,82.90
2017-05-07T16:56:22.413Z,82.20
2017-05-07T16:58:51.489Z,81.10
2017-05-07T17:01:19.787Z,82.10
2017-05-07T17:03:48.831Z,83.20
2017-05-07T17:06:22.843Z,83.70
2017-05-07T17:08:51.139Z,83.50
2017-05-07T17:11:19.443Z,84.20
2017-05-07T17:13:47.776Z,85.40
2017-05-07T17:16:16.076Z,85.60
2017-05-07T17:18:45.114Z,86.80
2017-05-07T17:21:13.449Z,88.00
2017-05-07T17:23:42.491Z,87.80
2017-05-07T17:26:10.798Z,89.20
2017-05-07T17:28:39.132Z,89.20
2017-05-07T17:31:07.452Z,90.50
2017-05-07T17:33:35.750Z,89.90
2017-05-07T17:36:04.083Z,90.40
2017-05-07T17:38:32.383Z,91.00
2017-05-07T17:41:00.683Z,91.10
2017-05-07T17:43:29.011Z,91.50
2017-05-07T17:45:57.307Z,91.70
2017-05-07T17:48:25.609Z,91.80
2017-05-07T17:50:53.949Z,92.20
2017-05-07T17:53:22.248Z,92.50
2017-05-07T17:55:50.554Z,93.00
2017-05-07T17:58:19.632Z,93.00
2017-05-07T18:00:47.931Z,93.50
2017-05-07T18:03:16.980Z,93.70
2017-05-07T18:05:45.308Z,93.70
2017-05-07T18:08:14.347Z,94.30
2017-05-07T18:10:42.642Z,94.20
2017-05-07T18:13:10.974Z,95.00
2017-05-07T18:15:39.266Z,94.50
2017-05-07T18:18:07.558Z,94.60
2017-05-07T18:20:35.887Z,95.30
2017-05-07T18:23:04.928Z,96.10
2017-05-07T18:25:33.226Z,96.30
2017-05-07T18:28:01.559Z,96.70
2017-05-07T18:30:29.858Z,96.10
2017-05-07T18:32:58.154Z,95.60
2017-05-07T18:35:26.499Z,96.10
2017-05-07T18:37:54.799Z,96.40
2017-05-07T18:40:23.096Z,96.30
2017-05-07T18:42:51.436Z,96.30
2017-05-07T18:45:19.739Z,96.50
2017-05-07T18:47:48.047Z,96.50
2017-05-07T18:50:16.384Z,96.70
2017-05-07T18:52:44.676Z,96.80
2017-05-07T18:55:12.971Z,96.90
2017-05-07T18:57:41.291Z,97.20
2017-05-07T19:00:10.331Z,97.50
2017-05-07T19:02:38.664Z,97.50
2017-05-07T19:05:07.712Z,97.40
2017-05-07T19:07:36.012Z,97.60
2017-05-07T19:10:04.340Z,97.80
2017-05-07T19:12:32.640Z,98.10
2017-05-07T19:15:00.943Z,98.10
2017-05-07T19:17:29.279Z,98.30
2017-05-07T19:19:57.580Z,98.30
2017-05-07T19:22:25.881Z,98.30
2017-05-07T19:24:54.210Z,98.40
2017-05-07T19:27:22.511Z,98.50
2017-05-07T19:29:50.811Z,98.30
2017-05-07T19:32:19.152Z,98.40
2017-05-07T19:34:47.451Z,98.40
2017-05-07T19:37:15.749Z,98.50
2017-05-07T19:39:44.076Z,98.60
2017-05-07T19:42:12.375Z,98.50
2017-05-07T19:44:40.672Z,98.40
2017-05-07T19:47:09.014Z,98.50
2017-05-07T19:49:37.308Z,99.20
2017-05-07T19:52:05.608Z,99.90
2017-05-07T19:54:33.944Z,99.90
2017-05-07T19:57:02.240Z,99.90
2017-05-07T19:59:30.539Z,99.90
2017-05-07T20:01:58.858Z,99.90
2017-05-07T20:04:27.158Z,99.90
2017-05-07T20:06:55.461Z,99.90
2017-05-07T20:09:23.799Z,99.90
2017-05-07T20:11:53.570Z,99.90
2017-05-07T20:14:22.733Z,99.90
2017-05-07T20:16:51.249Z,99.90
2017-05-07T20:19:19.555Z,99.90
2017-05-07T20:21:48.623Z,99.90
2017-05-07T20:24:16.924Z,99.90
2017-05-07T20:26:45.960Z,99.90
2017-05-07T20:29:14.291Z,99.90
2017-05-07T20:31:43.335Z,99.90
2017-05-07T20:34:11.642Z,99.90
2017-05-07T20:36:39.985Z,99.90
2017-05-07T20:39:08.291Z,99.90
2017-05-07T20:41:36.595Z,99.90
2017-05-07T20:44:04.928Z,99.90
2017-05-07T20:46:33.231Z,99.90
2017-05-07T20:49:01.538Z,99.90
2017-05-07T20:51:30.599Z,99.90
2017-05-07T20:53:58.894Z,99.90
2017-05-07T20:56:27.187Z,99.90
2017-05-07T20:58:56.258Z,99.90
2017-05-07T21:01:24.556Z,99.90
2017-05-07T21:03:53.746Z,99.90
2017-05-07T21:06:22.079Z,99.90
2017-05-07T21:08:50.375Z,99.90
2017-05-07T21:11:18.672Z,99.90
2017-05-07T21:13:46.996Z,99.90
2017-05-07T21:16:15.294Z,99.90
2017-05-07T21:18:43.592Z,99.90
2017-05-07T21:21:11.926Z,99.90
2017-05-07T21:23:40.221Z,99.90
2017-05-07T21:26:08.519Z,99.90
2017-05-07T21:28:36.848Z,99.90
2017-05-07T21:31:05.139Z,99.90
2017-05-07T21:33:33.432Z,99.90
2017-05-07T21:36:01.767Z,99.90
2017-05-07T21:38:30.825Z,99.90
2017-05-07T21:40:59.119Z,99.90
2017-05-07T21:43:27.447Z,99.90
2017-05-07T21:45:55.741Z,99.90
2017-05-07T21:48:24.028Z,99.90
2017-05-07T21:50:52.346Z,99.90
2017-05-07T21:53:21.387Z,99.90
2017-05-07T21:55:49.680Z,99.90
2017-05-07T21:58:18.009Z,99.90
2017-05-07T22:00:47.044Z,99.90
2017-05-07T22:03:15.343Z,99.90
2017-05-07T22:05:43.668Z,99.90
2017-05-07T22:08:11.963Z,99.90
2017-05-07T22:10:40.255Z,99.90
2017-05-07T22:13:08.567Z,99.90
2017-05-07T22:15:36.858Z,99.90
2017-05-07T22:18:05.931Z,99.90
2017-05-07T22:20:34.228Z,99.90
2017-05-07T22:23:03.263Z,99.90
2017-05-07T22:25:31.578Z,99.90
2017-05-07T22:27:59.875Z,99.90
2017-05-07T22:30:28.915Z,99.90
2017-05-07T22:32:57.255Z,99.90
2017-05-07T22:35:26.295Z,99.90
2017-05-07T22:37:54.592Z,99.90
2017-05-07T22:40:22.934Z,99.90
2017-05-07T22:42:51.231Z,99.90
2017-05-07T22:45:19.523Z,99.90
2017-05-07T22:47:47.839Z,99.90
2017-05-07T22:50:16.879Z,99.90
2017-05-07T22:52:45.175Z,99.90
2017-05-07T22:55:13.511Z,99.90
2017-05-07T22:57:41.808Z,99.90
2017-05-07T23:00:10.105Z,99.90
2017-05-07T23:02:38.445Z,99.90
2017-05-07T23:05:06.743Z,99.90
2017-05-07T23:07:35.037Z,99.90
2017-05-07T23:10:03.360Z,99.90
2017-05-07T23:12:32.394Z,99.90
2017-05-07T23:15:00.690Z,99.90
2017-05-07T23:17:29.018Z,99.90
2017-05-07T23:19:57.321Z,99.90
2017-05-07T23:22:25.621Z,99.90
2017-05-07T23:24:53.956Z,99.90
2017-05-07T23:27:22.255Z,99.90
2017-05-07T23:29:50.547Z,99.90
2017-05-07T23:32:18.871Z,99.90
2017-05-07T23:34:47.903Z,99.90
2017-05-07T23:37:16.196Z,99.90
2017-05-07T23:39:44.536Z,99.90
2017-05-07T23:42:12.840Z,99.90
2017-05-07T23:44:41.136Z,99.90
2017-05-07T23:47:09.459Z,99.90
2017-05-07T23:49:38.495Z,99.90
2017-05-07T23:52:07.016Z,99.90
2017-05-07T23:54:35.364Z,99.90
2017-05-07T23:57:04.403Z,99.90
2017-05-07T23:59:32.704Z,99.90
